ΕΜΥ, Εθνική Μετεωρολογική Υπηρεσία - Δελτία Καιρού, Προγνώσεις

ΑΕΡΟΝΑΥΤΙΛΙΑ

GREEK AIRPORTS CODES

LGMG 141500Z 00000KT 9999 FEW012 SCT025 15/13 Q1017 RMK SCT070=

EUROPEAN AIRPORTS CODES

LFPO 141730Z 07006KT 040V120 9999 BKN031 01/M05 Q1023 NOSIG=